Spaceon02064 — ASD — position and weather

sailwx.info

Track history (hours):
 
Tides and Currents Weather Stations Pressure Air Temp Water Temp Dewpoint Dewpoint Depression Visibility Wind Speed Wind Dir Waves Ship Positions

Spaceon02064

Last reported at 2016-Jul-28 21:33 UTC. Time now 2016-Jul-28 22:22 UTC.
Position N 31°21' E 121°32'.

Length 6 m.

Type: Ship. MMSI: 200902064.

Date/timePositionNaut miles runAvg speedWind from/ knotsBaromVisibWave heightAir tempDewpointWater temp
2016-Jul-28 21:33N 31°21' E 121°32'42029.5
2016-Jul-28 07:18N 24°47' E 118°47'50725.6
2016-Jul-27 11:31N 21°19' E 110°25'0 0.0
2016-Jul-27 10:33N 21°19' E 110°25'8484187.1
2016-Jul-27 10:21N 31°21' E 121°31'4 4.5
2016-Jul-27 09:31N 31°23' E 121°35'66881.3
2016-Jul-27 01:18N 23°04' E 113°16'6 7.5
2016-Jul-27 00:33N 23°02' E 113°22'6 5.9
2016-Jul-26 23:33N 23°05' E 113°28'0 0.0
2016-Jul-26 22:27N 23°05' E 113°28'0 0.0
2016-Jul-26 21:33N 23°05' E 113°28'0 0.0
2016-Jul-26 20:30N 23°05' E 113°28'5 5.0
2016-Jul-26 19:33N 23°02' E 113°24'1 0.1
2016-Jul-26 00:16N 23°02' E 113°22'4 5.7
2016-Jul-25 23:33N 23°05' E 113°26'2 1.7
2016-Jul-25 22:31N 23°05' E 113°28'0 0.0
2016-Jul-25 21:33N 23°05' E 113°28'0 0.0
2016-Jul-25 20:33N 23°05' E 113°28'0 0.1
2016-Jul-25 19:33N 23°05' E 113°28'5 5.4
2016-Jul-25 18:32N 23°02' E 113°23'4 0.3
2016-Jul-25 06:22N 23°03' E 113°19'6 7.0
2016-Jul-25 05:34N 23°03' E 113°25'3 3.3
2016-Jul-25 04:31N 23°05' E 113°28'0 0.0
2016-Jul-25 03:32N 23°05' E 113°28'0 0.0
2016-Jul-25 02:28N 23°05' E 113°28'0 0.2
2016-Jul-25 01:31N 23°05' E 113°28'9795806.3
2016-Jul-25 01:21N 38°58' E 117°46'9791181.5
2016-Jul-25 00:32N 23°05' E 113°28'97917191.6
2016-Jul-25 00:28N 38°59' E 117°45'9791037.8
2016-Jul-24 23:32N 23°05' E 113°28'97970485.7
2016-Jul-24 23:31N 38°59' E 117°45'0 0.1
2016-Jul-24 22:33N 38°59' E 117°45'97945185.8
2016-Jul-24 22:31N 23°05' E 113°28'0 0.1
2016-Jul-24 21:31N 23°05' E 113°28'0 0.0
2016-Jul-24 20:25N 23°05' E 113°28'0 0.0
2016-Jul-24 19:31N 23°05' E 113°28'0 0.0
2016-Jul-24 18:28N 23°05' E 113°28'3 3.5
2016-Jul-24 17:33N 23°03' E 113°25'19639.2
2016-Jul-24 12:33N 21°19' E 110°25'0 0.0
2016-Jul-24 11:33N 21°19' E 110°25'0 0.0
2016-Jul-24 10:33N 21°19' E 110°25'19311.3
2016-Jul-23 17:26N 23°03' E 113°20'5 5.5
2016-Jul-23 16:33N 23°04' E 113°25'2 2.2
2016-Jul-23 15:30N 23°05' E 113°28'0 0.0
2016-Jul-23 14:24N 23°05' E 113°28'0 0.0
2016-Jul-23 13:33N 23°05' E 113°28'0 0.0
2016-Jul-23 12:15N 23°05' E 113°28'0 0.0
2016-Jul-23 11:33N 23°05' E 113°28'200615.4
2016-Jul-23 11:14N 21°19' E 110°25'199294.2
2016-Jul-23 10:33N 23°05' E 113°28'1993799.1
2016-Jul-23 10:30N 21°19' E 110°25'20097.4
2016-Jul-23 08:27N 23°05' E 113°28'0 0.0
2016-Jul-23 07:25N 23°05' E 113°28'0 0.0
2016-Jul-22 15:25N 23°05' E 113°28'0 0.0
2016-Jul-22 14:31N 23°05' E 113°28'0 0.0
2016-Jul-22 13:31N 23°05' E 113°28'0 0.0
2016-Jul-22 12:31N 23°05' E 113°28'199604.9
2016-Jul-22 12:11N 21°19' E 110°25'0 0.0
2016-Jul-22 11:32N 21°19' E 110°25'1991273.1
2016-Jul-22 11:22N 23°05' E 113°28'0 0.2
2016-Jul-22 10:31N 23°05' E 113°28'2003685.2
2016-Jul-22 10:28N 21°19' E 110°25'200211.0
2016-Jul-22 09:31N 23°05' E 113°28'0 0.0
2016-Jul-22 08:28N 23°05' E 113°28'0 0.0
2016-Jul-22 07:31N 23°05' E 113°28'0 0.1
2016-Jul-22 04:23N 23°05' E 113°28'0 0.0
2016-Jul-22 03:32N 23°05' E 113°28'0 0.0
2016-Jul-22 02:29N 23°05' E 113°28'0 0.1
2016-Jul-22 01:32N 23°05' E 113°28'9793765.5
2016-Jul-22 01:16N 38°58' E 117°48'9791231.1
2016-Jul-22 00:28N 23°05' E 113°28'97978316.0
2016-Jul-22 00:28N 38°58' E 117°45'9821086.5
2016-Jul-21 23:33N 23°02' E 113°24'98229970.4
2016-Jul-21 23:31N 38°59' E 117°45'0 0.0
2016-Jul-21 22:31N 38°59' E 117°45'1126113.0
2016-Jul-21 12:33N 21°19' E 110°25'0 0.0
2016-Jul-21 11:32N 21°19' E 110°25'0 0.1
2016-Jul-21 10:32N 21°19' E 110°25'0 0.0
2016-Jul-21 09:31N 21°19' E 110°25'0 0.0
2016-Jul-20 13:31N 21°19' E 110°25'0 0.0
2016-Jul-20 12:27N 21°19' E 110°25'0 0.1
2016-Jul-20 11:30N 21°19' E 110°25'0 0.0
2016-Jul-20 10:33N 21°19' E 110°25'0 0.0
2016-Jul-20 03:33N 21°19' E 110°25'0 0.0
2016-Jul-20 02:31N 21°19' E 110°25'0 0.0
2016-Jul-20 01:30N 21°19' E 110°25'0 0.0
2016-Jul-19 13:21N 21°19' E 110°25'0 0.0
2016-Jul-19 12:28N 21°19' E 110°25'0 0.0
2016-Jul-19 11:33N 21°19' E 110°25'0 0.0
2016-Jul-19 10:33N 21°19' E 110°25'  
Track history (hours):
 
Tides and Currents Weather Stations Pressure Air Temp Water Temp Dewpoint Dewpoint Depression Visibility Wind Speed Wind Dir Waves Ship Positions

Spaceon02064

Last reported at 2016-Jul-28 21:33 UTC. Time now 2016-Jul-28 22:22 UTC.
Position N 31°21' E 121°32'.

Length 6 m.

Type: Ship. MMSI: 200902064.

Date/timePositionNaut miles runAvg speedWind from/ knotsBaromVisibWave heightAir tempDewpointWater temp
2016-Jul-28 21:33N 31°21' E 121°32'42029.5
2016-Jul-28 07:18N 24°47' E 118°47'50725.6
2016-Jul-27 11:31N 21°19' E 110°25'0 0.0
2016-Jul-27 10:33N 21°19' E 110°25'8484187.1
2016-Jul-27 10:21N 31°21' E 121°31'4 4.5
2016-Jul-27 09:31N 31°23' E 121°35'66881.3
2016-Jul-27 01:18N 23°04' E 113°16'6 7.5
2016-Jul-27 00:33N 23°02' E 113°22'6 5.9
2016-Jul-26 23:33N 23°05' E 113°28'0 0.0
2016-Jul-26 22:27N 23°05' E 113°28'0 0.0
2016-Jul-26 21:33N 23°05' E 113°28'0 0.0
2016-Jul-26 20:30N 23°05' E 113°28'5 5.0
2016-Jul-26 19:33N 23°02' E 113°24'1 0.1
2016-Jul-26 00:16N 23°02' E 113°22'4 5.7
2016-Jul-25 23:33N 23°05' E 113°26'2 1.7
2016-Jul-25 22:31N 23°05' E 113°28'0 0.0
2016-Jul-25 21:33N 23°05' E 113°28'0 0.0
2016-Jul-25 20:33N 23°05' E 113°28'0 0.1
2016-Jul-25 19:33N 23°05' E 113°28'5 5.4
2016-Jul-25 18:32N 23°02' E 113°23'4 0.3
2016-Jul-25 06:22N 23°03' E 113°19'6 7.0
2016-Jul-25 05:34N 23°03' E 113°25'3 3.3
2016-Jul-25 04:31N 23°05' E 113°28'0 0.0
2016-Jul-25 03:32N 23°05' E 113°28'0 0.0
2016-Jul-25 02:28N 23°05' E 113°28'0 0.2
2016-Jul-25 01:31N 23°05' E 113°28'9795806.3
2016-Jul-25 01:21N 38°58' E 117°46'9791181.5
2016-Jul-25 00:32N 23°05' E 113°28'97917191.6
2016-Jul-25 00:28N 38°59' E 117°45'9791037.8
2016-Jul-24 23:32N 23°05' E 113°28'97970485.7
2016-Jul-24 23:31N 38°59' E 117°45'0 0.1
2016-Jul-24 22:33N 38°59' E 117°45'97945185.8
2016-Jul-24 22:31N 23°05' E 113°28'0 0.1
2016-Jul-24 21:31N 23°05' E 113°28'0 0.0
2016-Jul-24 20:25N 23°05' E 113°28'0 0.0
2016-Jul-24 19:31N 23°05' E 113°28'0 0.0
2016-Jul-24 18:28N 23°05' E 113°28'3 3.5
2016-Jul-24 17:33N 23°03' E 113°25'19639.2
2016-Jul-24 12:33N 21°19' E 110°25'0 0.0
2016-Jul-24 11:33N 21°19' E 110°25'0 0.0
2016-Jul-24 10:33N 21°19' E 110°25'19311.3
2016-Jul-23 17:26N 23°03' E 113°20'5 5.5
2016-Jul-23 16:33N 23°04' E 113°25'2 2.2
2016-Jul-23 15:30N 23°05' E 113°28'0 0.0
2016-Jul-23 14:24N 23°05' E 113°28'0 0.0
2016-Jul-23 13:33N 23°05' E 113°28'0 0.0
2016-Jul-23 12:15N 23°05' E 113°28'0 0.0
2016-Jul-23 11:33N 23°05' E 113°28'200615.4
2016-Jul-23 11:14N 21°19' E 110°25'199294.2
2016-Jul-23 10:33N 23°05' E 113°28'1993799.1
2016-Jul-23 10:30N 21°19' E 110°25'20097.4
2016-Jul-23 08:27N 23°05' E 113°28'0 0.0
2016-Jul-23 07:25N 23°05' E 113°28'0 0.0
2016-Jul-22 15:25N 23°05' E 113°28'0 0.0
2016-Jul-22 14:31N 23°05' E 113°28'0 0.0
2016-Jul-22 13:31N 23°05' E 113°28'0 0.0
2016-Jul-22 12:31N 23°05' E 113°28'199604.9
2016-Jul-22 12:11N 21°19' E 110°25'0 0.0
2016-Jul-22 11:32N 21°19' E 110°25'1991273.1
2016-Jul-22 11:22N 23°05' E 113°28'0 0.2
2016-Jul-22 10:31N 23°05' E 113°28'2003685.2
2016-Jul-22 10:28N 21°19' E 110°25'200211.0
2016-Jul-22 09:31N 23°05' E 113°28'0 0.0
2016-Jul-22 08:28N 23°05' E 113°28'0 0.0
2016-Jul-22 07:31N 23°05' E 113°28'0 0.1
2016-Jul-22 04:23N 23°05' E 113°28'0 0.0
2016-Jul-22 03:32N 23°05' E 113°28'0 0.0
2016-Jul-22 02:29N 23°05' E 113°28'0 0.1
2016-Jul-22 01:32N 23°05' E 113°28'9793765.5
2016-Jul-22 01:16N 38°58' E 117°48'9791231.1
2016-Jul-22 00:28N 23°05' E 113°28'97978316.0
2016-Jul-22 00:28N 38°58' E 117°45'9821086.5
2016-Jul-21 23:33N 23°02' E 113°24'98229970.4
2016-Jul-21 23:31N 38°59' E 117°45'0 0.0
2016-Jul-21 22:31N 38°59' E 117°45'1126113.0
2016-Jul-21 12:33N 21°19' E 110°25'0 0.0
2016-Jul-21 11:32N 21°19' E 110°25'0 0.1
2016-Jul-21 10:32N 21°19' E 110°25'0 0.0
2016-Jul-21 09:31N 21°19' E 110°25'0 0.0
2016-Jul-20 13:31N 21°19' E 110°25'0 0.0
2016-Jul-20 12:27N 21°19' E 110°25'0 0.1
2016-Jul-20 11:30N 21°19' E 110°25'0 0.0
2016-Jul-20 10:33N 21°19' E 110°25'0 0.0
2016-Jul-20 03:33N 21°19' E 110°25'0 0.0
2016-Jul-20 02:31N 21°19' E 110°25'0 0.0
2016-Jul-20 01:30N 21°19' E 110°25'0 0.0
2016-Jul-19 13:21N 21°19' E 110°25'0 0.0
2016-Jul-19 12:28N 21°19' E 110°25'0 0.0
2016-Jul-19 11:33N 21°19' E 110°25'0 0.0
2016-Jul-19 10:33N 21°19' E 110°25'  

Dump ship's entire track history